sensor_id;sensor_type;location;lat;lon;timestamp;P1;durP1;ratioP1;P2;durP2;ratioP2
48534;SDS011;34323;52.022;5.686;2023-03-14T00:01:43;12.15;;;2.53;;
48534;SDS011;34323;52.022;5.686;2023-03-14T00:04:10;12.07;;;2.58;;
48534;SDS011;34323;52.022;5.686;2023-03-14T00:06:35;11.95;;;2.67;;
48534;SDS011;34323;52.022;5.686;2023-03-14T00:09:01;7.63;;;2.15;;
48534;SDS011;34323;52.022;5.686;2023-03-14T00:11:26;10.23;;;2.42;;
48534;SDS011;34323;52.022;5.686;2023-03-14T00:13:52;8.70;;;2.20;;
48534;SDS011;34323;52.022;5.686;2023-03-14T00:16:18;8.85;;;2.00;;
48534;SDS011;34323;52.022;5.686;2023-03-14T00:18:44;12.07;;;2.50;;
48534;SDS011;34323;52.022;5.686;2023-03-14T00:21:10;6.70;;;2.30;;
48534;SDS011;34323;52.022;5.686;2023-03-14T00:23:37;12.05;;;2.55;;
48534;SDS011;34323;52.022;5.686;2023-03-14T00:26:05;9.40;;;2.45;;
48534;SDS011;34323;52.022;5.686;2023-03-14T00:28:32;6.00;;;1.95;;
48534;SDS011;34323;52.022;5.686;2023-03-14T00:30:58;8.68;;;2.38;;
48534;SDS011;34323;52.022;5.686;2023-03-14T00:33:26;15.82;;;2.88;;
48534;SDS011;34323;52.022;5.686;2023-03-14T00:35:59;7.32;;;2.08;;
48534;SDS011;34323;52.022;5.686;2023-03-14T00:38:26;7.28;;;1.95;;
48534;SDS011;34323;52.022;5.686;2023-03-14T00:40:52;13.57;;;2.85;;
48534;SDS011;34323;52.022;5.686;2023-03-14T00:43:18;9.48;;;2.20;;
48534;SDS011;34323;52.022;5.686;2023-03-14T00:45:46;9.05;;;3.22;;
48534;SDS011;34323;52.022;5.686;2023-03-14T00:48:12;8.70;;;2.35;;
48534;SDS011;34323;52.022;5.686;2023-03-14T00:50:38;5.95;;;2.15;;
48534;SDS011;34323;52.022;5.686;2023-03-14T00:53:04;8.70;;;2.40;;
48534;SDS011;34323;52.022;5.686;2023-03-14T00:55:30;4.10;;;2.05;;
48534;SDS011;34323;52.022;5.686;2023-03-14T00:57:55;3.03;;;1.55;;
48534;SDS011;34323;52.022;5.686;2023-03-14T01:00:21;9.98;;;2.17;;
48534;SDS011;34323;52.022;5.686;2023-03-14T01:02:46;4.90;;;1.67;;
48534;SDS011;34323;52.022;5.686;2023-03-14T01:05:12;9.07;;;1.83;;
48534;SDS011;34323;52.022;5.686;2023-03-14T01:07:38;11.65;;;1.73;;
48534;SDS011;34323;52.022;5.686;2023-03-14T01:10:04;8.68;;;1.33;;
48534;SDS011;34323;52.022;5.686;2023-03-14T01:12:30;2.33;;;0.90;;
48534;SDS011;34323;52.022;5.686;2023-03-14T01:14:56;10.52;;;1.38;;
48534;SDS011;34323;52.022;5.686;2023-03-14T01:17:22;5.88;;;1.45;;
48534;SDS011;34323;52.022;5.686;2023-03-14T01:19:48;4.65;;;1.30;;
48534;SDS011;34323;52.022;5.686;2023-03-14T01:22:13;9.65;;;1.20;;
48534;SDS011;34323;52.022;5.686;2023-03-14T01:24:39;5.70;;;1.25;;
48534;SDS011;34323;52.022;5.686;2023-03-14T01:27:05;5.50;;;1.27;;
48534;SDS011;34323;52.022;5.686;2023-03-14T01:29:30;9.95;;;1.63;;
48534;SDS011;34323;52.022;5.686;2023-03-14T01:31:56;8.32;;;1.33;;
48534;SDS011;34323;52.022;5.686;2023-03-14T01:34:21;8.45;;;1.13;;
48534;SDS011;34323;52.022;5.686;2023-03-14T01:36:47;6.32;;;1.60;;
48534;SDS011;34323;52.022;5.686;2023-03-14T01:39:12;8.82;;;1.45;;
48534;SDS011;34323;52.022;5.686;2023-03-14T01:41:38;7.28;;;1.20;;
48534;SDS011;34323;52.022;5.686;2023-03-14T01:44:04;11.55;;;1.77;;
48534;SDS011;34323;52.022;5.686;2023-03-14T01:46:32;9.57;;;2.65;;
48534;SDS011;34323;52.022;5.686;2023-03-14T01:51:34;8.27;;;1.60;;
48534;SDS011;34323;52.022;5.686;2023-03-14T01:54:07;11.40;;;1.85;;
48534;SDS011;34323;52.022;5.686;2023-03-14T01:56:41;13.10;;;1.48;;
48534;SDS011;34323;52.022;5.686;2023-03-14T01:59:10;12.07;;;1.90;;
48534;SDS011;34323;52.022;5.686;2023-03-14T02:01:36;8.30;;;2.08;;
48534;SDS011;34323;52.022;5.686;2023-03-14T02:04:05;9.43;;;1.85;;
48534;SDS011;34323;52.022;5.686;2023-03-14T02:06:39;4.63;;;1.60;;
48534;SDS011;34323;52.022;5.686;2023-03-14T02:09:12;8.38;;;2.25;;
48534;SDS011;34323;52.022;5.686;2023-03-14T02:11:39;9.77;;;2.00;;
48534;SDS011;34323;52.022;5.686;2023-03-14T02:14:04;11.80;;;2.28;;
48534;SDS011;34323;52.022;5.686;2023-03-14T02:16:32;14.73;;;2.30;;
48534;SDS011;34323;52.022;5.686;2023-03-14T02:19:00;9.95;;;2.70;;
48534;SDS011;34323;52.022;5.686;2023-03-14T02:21:30;5.40;;;2.25;;
48534;SDS011;34323;52.022;5.686;2023-03-14T02:24:23;10.02;;;2.50;;
48534;SDS011;34323;52.022;5.686;2023-03-14T02:29:39;8.13;;;2.70;;
48534;SDS011;34323;52.022;5.686;2023-03-14T02:32:12;8.68;;;2.78;;
48534;SDS011;34323;52.022;5.686;2023-03-14T02:34:39;8.27;;;3.45;;
48534;SDS011;34323;52.022;5.686;2023-03-14T02:37:06;11.88;;;3.50;;
48534;SDS011;34323;52.022;5.686;2023-03-14T02:39:36;9.02;;;3.10;;
48534;SDS011;34323;52.022;5.686;2023-03-14T02:42:04;11.63;;;3.30;;
48534;SDS011;34323;52.022;5.686;2023-03-14T02:44:30;11.32;;;2.97;;
48534;SDS011;34323;52.022;5.686;2023-03-14T02:46:56;12.75;;;3.45;;
48534;SDS011;34323;52.022;5.686;2023-03-14T02:49:22;10.77;;;3.65;;
48534;SDS011;34323;52.022;5.686;2023-03-14T02:51:48;10.95;;;2.95;;
48534;SDS011;34323;52.022;5.686;2023-03-14T02:54:15;13.40;;;3.53;;
48534;SDS011;34323;52.022;5.686;2023-03-14T02:56:40;7.57;;;2.20;;
48534;SDS011;34323;52.022;5.686;2023-03-14T02:59:06;14.77;;;2.78;;
48534;SDS011;34323;52.022;5.686;2023-03-14T03:01:32;10.93;;;2.97;;
48534;SDS011;34323;52.022;5.686;2023-03-14T03:03:59;11.50;;;2.63;;
48534;SDS011;34323;52.022;5.686;2023-03-14T03:06:24;12.43;;;2.97;;
48534;SDS011;34323;52.022;5.686;2023-03-14T03:08:50;13.63;;;2.72;;
48534;SDS011;34323;52.022;5.686;2023-03-14T03:11:16;7.50;;;2.60;;
48534;SDS011;34323;52.022;5.686;2023-03-14T03:13:42;10.43;;;2.22;;
48534;SDS011;34323;52.022;5.686;2023-03-14T03:16:07;9.80;;;2.75;;
48534;SDS011;34323;52.022;5.686;2023-03-14T03:18:33;6.50;;;1.75;;
48534;SDS011;34323;52.022;5.686;2023-03-14T03:20:59;10.07;;;1.95;;
48534;SDS011;34323;52.022;5.686;2023-03-14T03:23:26;12.43;;;3.30;;
48534;SDS011;34323;52.022;5.686;2023-03-14T03:25:52;5.28;;;1.70;;
48534;SDS011;34323;52.022;5.686;2023-03-14T03:28:18;8.45;;;2.28;;
48534;SDS011;34323;52.022;5.686;2023-03-14T03:30:44;7.35;;;1.90;;
48534;SDS011;34323;52.022;5.686;2023-03-14T03:33:10;4.20;;;1.60;;
48534;SDS011;34323;52.022;5.686;2023-03-14T03:35:43;9.52;;;2.20;;
48534;SDS011;34323;52.022;5.686;2023-03-14T03:38:13;12.88;;;2.45;;
48534;SDS011;34323;52.022;5.686;2023-03-14T03:40:39;10.70;;;2.92;;
48534;SDS011;34323;52.022;5.686;2023-03-14T03:43:05;7.07;;;1.73;;
48534;SDS011;34323;52.022;5.686;2023-03-14T03:45:31;11.10;;;2.97;;
48534;SDS011;34323;52.022;5.686;2023-03-14T03:47:56;14.52;;;2.35;;
48534;SDS011;34323;52.022;5.686;2023-03-14T03:50:22;10.07;;;1.77;;
48534;SDS011;34323;52.022;5.686;2023-03-14T03:52:47;8.02;;;2.00;;
48534;SDS011;34323;52.022;5.686;2023-03-14T03:55:13;13.40;;;2.35;;
48534;SDS011;34323;52.022;5.686;2023-03-14T03:57:39;12.63;;;2.70;;
48534;SDS011;34323;52.022;5.686;2023-03-14T04:00:05;20.88;;;3.13;;
48534;SDS011;34323;52.022;5.686;2023-03-14T04:02:33;6.82;;;2.20;;
48534;SDS011;34323;52.022;5.686;2023-03-14T04:04:59;11.75;;;2.72;;
48534;SDS011;34323;52.022;5.686;2023-03-14T04:07:24;9.07;;;3.03;;
48534;SDS011;34323;52.022;5.686;2023-03-14T04:09:50;10.40;;;3.30;;
48534;SDS011;34323;52.022;5.686;2023-03-14T04:12:16;9.18;;;2.25;;
48534;SDS011;34323;52.022;5.686;2023-03-14T04:14:41;12.32;;;2.42;;
48534;SDS011;34323;52.022;5.686;2023-03-14T04:17:07;8.07;;;2.50;;
48534;SDS011;34323;52.022;5.686;2023-03-14T04:19:33;5.55;;;2.25;;
48534;SDS011;34323;52.022;5.686;2023-03-14T04:21:58;11.05;;;2.60;;
48534;SDS011;34323;52.022;5.686;2023-03-14T04:24:24;13.02;;;3.00;;
48534;SDS011;34323;52.022;5.686;2023-03-14T04:26:49;10.10;;;2.60;;
48534;SDS011;34323;52.022;5.686;2023-03-14T04:29:15;10.00;;;2.22;;
48534;SDS011;34323;52.022;5.686;2023-03-14T04:31:41;11.15;;;2.30;;
48534;SDS011;34323;52.022;5.686;2023-03-14T04:34:06;10.15;;;2.10;;
48534;SDS011;34323;52.022;5.686;2023-03-14T04:36:32;11.73;;;2.42;;
48534;SDS011;34323;52.022;5.686;2023-03-14T04:38:57;6.50;;;1.75;;
48534;SDS011;34323;52.022;5.686;2023-03-14T04:41:23;10.80;;;1.70;;
48534;SDS011;34323;52.022;5.686;2023-03-14T04:43:49;9.00;;;2.17;;
48534;SDS011;34323;52.022;5.686;2023-03-14T04:46:14;10.77;;;2.45;;
48534;SDS011;34323;52.022;5.686;2023-03-14T04:48:40;10.07;;;2.10;;
48534;SDS011;34323;52.022;5.686;2023-03-14T04:51:05;14.43;;;2.88;;
48534;SDS011;34323;52.022;5.686;2023-03-14T04:53:31;10.02;;;1.67;;
48534;SDS011;34323;52.022;5.686;2023-03-14T04:55:57;9.30;;;1.90;;
48534;SDS011;34323;52.022;5.686;2023-03-14T04:58:22;7.55;;;1.85;;
48534;SDS011;34323;52.022;5.686;2023-03-14T05:00:49;8.10;;;2.17;;
48534;SDS011;34323;52.022;5.686;2023-03-14T05:03:15;7.32;;;2.10;;
48534;SDS011;34323;52.022;5.686;2023-03-14T05:05:41;8.50;;;1.98;;
48534;SDS011;34323;52.022;5.686;2023-03-14T05:08:07;5.60;;;1.70;;
48534;SDS011;34323;52.022;5.686;2023-03-14T05:10:32;8.63;;;1.70;;
48534;SDS011;34323;52.022;5.686;2023-03-14T05:12:58;7.07;;;1.50;;
48534;SDS011;34323;52.022;5.686;2023-03-14T05:15:24;4.90;;;1.60;;
48534;SDS011;34323;52.022;5.686;2023-03-14T05:17:49;13.38;;;1.40;;
48534;SDS011;34323;52.022;5.686;2023-03-14T05:20:15;7.10;;;2.00;;
48534;SDS011;34323;52.022;5.686;2023-03-14T05:22:41;9.23;;;2.08;;
48534;SDS011;34323;52.022;5.686;2023-03-14T05:25:07;6.40;;;1.52;;
48534;SDS011;34323;52.022;5.686;2023-03-14T05:27:34;7.60;;;1.55;;
48534;SDS011;34323;52.022;5.686;2023-03-14T05:30:00;4.78;;;1.40;;
48534;SDS011;34323;52.022;5.686;2023-03-14T05:32:27;8.15;;;1.75;;
48534;SDS011;34323;52.022;5.686;2023-03-14T05:34:53;6.60;;;1.67;;
48534;SDS011;34323;52.022;5.686;2023-03-14T05:37:23;9.77;;;2.13;;
48534;SDS011;34323;52.022;5.686;2023-03-14T05:39:48;4.97;;;1.50;;
48534;SDS011;34323;52.022;5.686;2023-03-14T05:42:14;4.03;;;1.45;;
48534;SDS011;34323;52.022;5.686;2023-03-14T05:44:39;7.88;;;1.73;;
48534;SDS011;34323;52.022;5.686;2023-03-14T05:47:05;4.25;;;1.60;;
48534;SDS011;34323;52.022;5.686;2023-03-14T05:49:30;7.15;;;1.98;;
48534;SDS011;34323;52.022;5.686;2023-03-14T05:51:56;8.50;;;1.77;;
48534;SDS011;34323;52.022;5.686;2023-03-14T05:54:21;8.25;;;1.73;;
48534;SDS011;34323;52.022;5.686;2023-03-14T05:56:47;8.77;;;2.00;;
48534;SDS011;34323;52.022;5.686;2023-03-14T05:59:12;4.65;;;1.83;;
48534;SDS011;34323;52.022;5.686;2023-03-14T06:01:39;7.88;;;1.85;;
48534;SDS011;34323;52.022;5.686;2023-03-14T06:04:05;5.80;;;2.05;;
48534;SDS011;34323;52.022;5.686;2023-03-14T06:06:31;10.70;;;3.10;;
48534;SDS011;34323;52.022;5.686;2023-03-14T06:08:56;6.40;;;2.63;;
48534;SDS011;34323;52.022;5.686;2023-03-14T06:11:22;3.90;;;2.00;;
48534;SDS011;34323;52.022;5.686;2023-03-14T06:13:47;12.82;;;2.88;;
48534;SDS011;34323;52.022;5.686;2023-03-14T06:16:13;5.82;;;2.00;;
48534;SDS011;34323;52.022;5.686;2023-03-14T06:18:39;5.80;;;2.53;;
48534;SDS011;34323;52.022;5.686;2023-03-14T06:21:04;6.25;;;2.70;;
48534;SDS011;34323;52.022;5.686;2023-03-14T06:23:30;6.95;;;2.30;;
48534;SDS011;34323;52.022;5.686;2023-03-14T06:25:56;5.38;;;2.70;;
48534;SDS011;34323;52.022;5.686;2023-03-14T06:28:23;9.52;;;2.83;;
48534;SDS011;34323;52.022;5.686;2023-03-14T06:30:48;7.65;;;2.80;;
48534;SDS011;34323;52.022;5.686;2023-03-14T06:33:14;12.52;;;3.78;;
48534;SDS011;34323;52.022;5.686;2023-03-14T06:35:39;8.13;;;3.05;;
48534;SDS011;34323;52.022;5.686;2023-03-14T06:38:05;8.75;;;3.65;;
48534;SDS011;34323;52.022;5.686;2023-03-14T06:40:30;10.27;;;3.22;;
48534;SDS011;34323;52.022;5.686;2023-03-14T06:42:56;11.18;;;4.25;;
48534;SDS011;34323;52.022;5.686;2023-03-14T06:45:21;7.80;;;3.92;;
48534;SDS011;34323;52.022;5.686;2023-03-14T06:47:47;13.73;;;4.13;;
48534;SDS011;34323;52.022;5.686;2023-03-14T06:50:13;7.82;;;3.60;;
48534;SDS011;34323;52.022;5.686;2023-03-14T06:52:38;11.95;;;5.00;;
48534;SDS011;34323;52.022;5.686;2023-03-14T06:55:10;12.32;;;4.65;;
48534;SDS011;34323;52.022;5.686;2023-03-14T06:57:36;10.05;;;5.50;;
48534;SDS011;34323;52.022;5.686;2023-03-14T07:00:02;13.13;;;5.47;;
48534;SDS011;34323;52.022;5.686;2023-03-14T07:02:28;18.77;;;5.20;;
48534;SDS011;34323;52.022;5.686;2023-03-14T07:04:54;11.05;;;5.15;;
48534;SDS011;34323;52.022;5.686;2023-03-14T07:07:20;11.70;;;6.03;;
48534;SDS011;34323;52.022;5.686;2023-03-14T07:09:45;12.05;;;5.70;;
48534;SDS011;34323;52.022;5.686;2023-03-14T07:12:11;7.95;;;4.35;;
48534;SDS011;34323;52.022;5.686;2023-03-14T07:14:36;10.80;;;4.38;;
48534;SDS011;34323;52.022;5.686;2023-03-14T07:17:02;8.23;;;3.45;;
48534;SDS011;34323;52.022;5.686;2023-03-14T07:19:27;6.70;;;1.88;;
48534;SDS011;34323;52.022;5.686;2023-03-14T07:21:53;4.05;;;1.70;;
48534;SDS011;34323;52.022;5.686;2023-03-14T07:24:19;4.03;;;1.27;;
48534;SDS011;34323;52.022;5.686;2023-03-14T07:26:44;4.32;;;1.27;;
48534;SDS011;34323;52.022;5.686;2023-03-14T07:29:10;1.73;;;0.90;;
48534;SDS011;34323;52.022;5.686;2023-03-14T07:31:35;1.88;;;1.10;;
48534;SDS011;34323;52.022;5.686;2023-03-14T07:34:01;3.35;;;0.90;;
48534;SDS011;34323;52.022;5.686;2023-03-14T07:36:27;2.38;;;1.45;;
48534;SDS011;34323;52.022;5.686;2023-03-14T07:38:52;1.42;;;0.77;;
48534;SDS011;34323;52.022;5.686;2023-03-14T07:41:18;3.65;;;1.10;;
48534;SDS011;34323;52.022;5.686;2023-03-14T07:43:43;1.83;;;0.80;;
48534;SDS011;34323;52.022;5.686;2023-03-14T07:46:09;5.00;;;0.80;;
48534;SDS011;34323;52.022;5.686;2023-03-14T07:48:34;5.30;;;0.95;;
48534;SDS011;34323;52.022;5.686;2023-03-14T07:51:00;2.63;;;1.00;;
48534;SDS011;34323;52.022;5.686;2023-03-14T07:53:26;2.80;;;1.27;;
48534;SDS011;34323;52.022;5.686;2023-03-14T07:55:52;5.93;;;1.30;;
48534;SDS011;34323;52.022;5.686;2023-03-14T07:58:19;4.35;;;1.38;;
48534;SDS011;34323;52.022;5.686;2023-03-14T08:00:46;2.03;;;1.05;;
48534;SDS011;34323;52.022;5.686;2023-03-14T08:03:13;1.50;;;1.13;;
48534;SDS011;34323;52.022;5.686;2023-03-14T08:05:38;2.53;;;0.90;;
48534;SDS011;34323;52.022;5.686;2023-03-14T08:08:05;2.47;;;1.45;;
48534;SDS011;34323;52.022;5.686;2023-03-14T08:10:31;2.78;;;1.08;;
48534;SDS011;34323;52.022;5.686;2023-03-14T08:12:57;3.55;;;1.08;;
48534;SDS011;34323;52.022;5.686;2023-03-14T08:15:24;4.55;;;1.17;;
48534;SDS011;34323;52.022;5.686;2023-03-14T08:17:51;2.05;;;0.90;;
48534;SDS011;34323;52.022;5.686;2023-03-14T08:20:18;2.92;;;1.10;;
48534;SDS011;34323;52.022;5.686;2023-03-14T08:22:44;2.22;;;1.25;;
48534;SDS011;34323;52.022;5.686;2023-03-14T08:25:09;7.32;;;1.40;;
48534;SDS011;34323;52.022;5.686;2023-03-14T08:27:35;3.58;;;1.38;;
48534;SDS011;34323;52.022;5.686;2023-03-14T08:30:04;8.73;;;1.67;;
48534;SDS011;34323;52.022;5.686;2023-03-14T08:32:30;7.20;;;1.00;;
48534;SDS011;34323;52.022;5.686;2023-03-14T08:34:56;4.65;;;1.02;;
48534;SDS011;34323;52.022;5.686;2023-03-14T08:37:21;4.18;;;1.40;;
48534;SDS011;34323;52.022;5.686;2023-03-14T08:39:47;1.27;;;0.43;;
48534;SDS011;34323;52.022;5.686;2023-03-14T08:42:12;4.93;;;0.73;;
48534;SDS011;34323;52.022;5.686;2023-03-14T08:44:38;4.25;;;0.98;;
48534;SDS011;34323;52.022;5.686;2023-03-14T08:47:04;1.52;;;1.13;;
48534;SDS011;34323;52.022;5.686;2023-03-14T08:49:29;1.63;;;0.50;;
48534;SDS011;34323;52.022;5.686;2023-03-14T08:51:55;7.78;;;1.35;;
48534;SDS011;34323;52.022;5.686;2023-03-14T08:54:20;5.55;;;1.10;;
48534;SDS011;34323;52.022;5.686;2023-03-14T08:56:46;2.75;;;0.43;;
48534;SDS011;34323;52.022;5.686;2023-03-14T08:59:11;5.82;;;0.90;;
48534;SDS011;34323;52.022;5.686;2023-03-14T09:01:37;6.20;;;0.93;;
48534;SDS011;34323;52.022;5.686;2023-03-14T09:04:03;4.38;;;0.77;;
48534;SDS011;34323;52.022;5.686;2023-03-14T09:06:28;7.65;;;0.95;;
48534;SDS011;34323;52.022;5.686;2023-03-14T09:08:54;1.67;;;0.50;;
48534;SDS011;34323;52.022;5.686;2023-03-14T09:11:19;2.80;;;0.80;;
48534;SDS011;34323;52.022;5.686;2023-03-14T09:13:45;1.60;;;0.40;;
48534;SDS011;34323;52.022;5.686;2023-03-14T09:16:11;7.78;;;0.95;;
48534;SDS011;34323;52.022;5.686;2023-03-14T09:18:36;1.80;;;0.52;;
48534;SDS011;34323;52.022;5.686;2023-03-14T09:21:02;1.63;;;0.40;;
48534;SDS011;34323;52.022;5.686;2023-03-14T09:23:28;1.02;;;0.50;;
48534;SDS011;34323;52.022;5.686;2023-03-14T09:25:57;1.38;;;0.45;;
48534;SDS011;34323;52.022;5.686;2023-03-14T09:28:23;3.33;;;1.02;;
48534;SDS011;34323;52.022;5.686;2023-03-14T09:30:49;5.45;;;0.30;;
48534;SDS011;34323;52.022;5.686;2023-03-14T09:33:16;3.72;;;0.60;;
48534;SDS011;34323;52.022;5.686;2023-03-14T09:35:42;1.73;;;0.55;;
48534;SDS011;34323;52.022;5.686;2023-03-14T09:38:07;2.20;;;0.63;;
48534;SDS011;34323;52.022;5.686;2023-03-14T09:40:36;4.00;;;0.80;;
48534;SDS011;34323;52.022;5.686;2023-03-14T09:43:03;6.45;;;0.50;;
48534;SDS011;34323;52.022;5.686;2023-03-14T09:45:31;10.70;;;1.35;;
48534;SDS011;34323;52.022;5.686;2023-03-14T09:48:00;1.27;;;0.63;;
48534;SDS011;34323;52.022;5.686;2023-03-14T09:50:30;7.88;;;1.20;;
48534;SDS011;34323;52.022;5.686;2023-03-14T09:53:04;6.30;;;1.23;;
48534;SDS011;34323;52.022;5.686;2023-03-14T09:55:35;7.63;;;1.55;;
48534;SDS011;34323;52.022;5.686;2023-03-14T09:58:02;5.95;;;1.63;;
48534;SDS011;34323;52.022;5.686;2023-03-14T10:00:34;5.88;;;1.05;;
48534;SDS011;34323;52.022;5.686;2023-03-14T10:05:39;13.35;;;1.50;;
48534;SDS011;34323;52.022;5.686;2023-03-14T10:08:11;11.20;;;2.38;;
48534;SDS011;34323;52.022;5.686;2023-03-14T10:10:37;7.78;;;1.77;;
48534;SDS011;34323;52.022;5.686;2023-03-14T10:13:23;10.68;;;1.52;;
48534;SDS011;34323;52.022;5.686;2023-03-14T10:15:52;10.20;;;1.92;;
48534;SDS011;34323;52.022;5.686;2023-03-14T10:18:19;10.27;;;2.05;;
48534;SDS011;34323;52.022;5.686;2023-03-14T10:20:45;10.52;;;1.63;;
48534;SDS011;34323;52.022;5.686;2023-03-14T10:25:41;9.15;;;1.95;;
48534;SDS011;34323;52.022;5.686;2023-03-14T10:28:31;13.68;;;1.95;;
48534;SDS011;34323;52.022;5.686;2023-03-14T10:31:16;21.33;;;2.13;;
48534;SDS011;34323;52.022;5.686;2023-03-14T10:33:41;18.30;;;2.03;;
48534;SDS011;34323;52.022;5.686;2023-03-14T10:36:23;16.67;;;2.70;;
48534;SDS011;34323;52.022;5.686;2023-03-14T10:38:56;16.77;;;2.38;;
48534;SDS011;34323;52.022;5.686;2023-03-14T10:41:43;21.63;;;2.70;;
48534;SDS011;34323;52.022;5.686;2023-03-14T10:44:15;16.65;;;2.88;;
48534;SDS011;34323;52.022;5.686;2023-03-14T10:46:44;12.32;;;1.67;;
48534;SDS011;34323;52.022;5.686;2023-03-14T10:49:15;6.65;;;1.73;;
48534;SDS011;34323;52.022;5.686;2023-03-14T10:51:52;14.10;;;2.15;;
48534;SDS011;34323;52.022;5.686;2023-03-14T10:54:21;10.90;;;1.83;;
48534;SDS011;34323;52.022;5.686;2023-03-14T10:57:00;15.90;;;2.10;;
48534;SDS011;34323;52.022;5.686;2023-03-14T10:59:29;10.20;;;2.00;;
48534;SDS011;34323;52.022;5.686;2023-03-14T11:30:02;16.02;;;3.40;;
48534;SDS011;34323;52.022;5.686;2023-03-14T11:32:55;11.40;;;2.05;;
48534;SDS011;34323;52.022;5.686;2023-03-14T11:35:39;11.52;;;1.58;;
48534;SDS011;34323;52.022;5.686;2023-03-14T11:41:04;12.23;;;1.92;;
48534;SDS011;34323;52.022;5.686;2023-03-14T11:43:55;14.43;;;2.38;;
48534;SDS011;34323;52.022;5.686;2023-03-14T11:46:30;13.75;;;3.13;;
48534;SDS011;34323;52.022;5.686;2023-03-14T11:49:13;20.63;;;2.47;;
48534;SDS011;34323;52.022;5.686;2023-03-14T11:52:14;9.60;;;2.35;;
48534;SDS011;34323;52.022;5.686;2023-03-14T11:54:48;7.80;;;2.05;;
48534;SDS011;34323;52.022;5.686;2023-03-14T11:57:26;15.27;;;2.42;;
48534;SDS011;34323;52.022;5.686;2023-03-14T12:08:53;17.35;;;2.00;;
48534;SDS011;34323;52.022;5.686;2023-03-14T12:14:22;9.93;;;1.65;;
48534;SDS011;34323;52.022;5.686;2023-03-14T12:17:07;12.25;;;1.90;;
48534;SDS011;34323;52.022;5.686;2023-03-14T12:19:41;12.98;;;1.88;;
48534;SDS011;34323;52.022;5.686;2023-03-14T12:22:08;12.32;;;1.73;;
48534;SDS011;34323;52.022;5.686;2023-03-14T12:24:50;11.02;;;2.15;;
48534;SDS011;34323;52.022;5.686;2023-03-14T12:30:28;12.82;;;1.50;;
48534;SDS011;34323;52.022;5.686;2023-03-14T12:35:52;6.10;;;1.65;;
48534;SDS011;34323;52.022;5.686;2023-03-14T12:41:20;6.35;;;1.63;;
48534;SDS011;34323;52.022;5.686;2023-03-14T12:49:52;8.38;;;2.05;;
48534;SDS011;34323;52.022;5.686;2023-03-14T12:52:22;12.75;;;1.88;;
48534;SDS011;34323;52.022;5.686;2023-03-14T12:57:35;5.43;;;1.35;;
48534;SDS011;34323;52.022;5.686;2023-03-14T13:00:23;7.05;;;1.40;;
48534;SDS011;34323;52.022;5.686;2023-03-14T13:02:59;3.88;;;1.15;;
48534;SDS011;34323;52.022;5.686;2023-03-14T13:05:37;9.32;;;1.35;;
48534;SDS011;34323;52.022;5.686;2023-03-14T13:08:37;6.38;;;1.48;;
48534;SDS011;34323;52.022;5.686;2023-03-14T13:11:05;10.00;;;1.80;;
48534;SDS011;34323;52.022;5.686;2023-03-14T13:13:34;14.23;;;1.88;;
48534;SDS011;34323;52.022;5.686;2023-03-14T13:16:01;4.90;;;1.20;;
48534;SDS011;34323;52.022;5.686;2023-03-14T13:18:37;5.60;;;1.83;;
48534;SDS011;34323;52.022;5.686;2023-03-14T13:21:06;3.80;;;1.50;;
48534;SDS011;34323;52.022;5.686;2023-03-14T13:23:35;7.47;;;1.13;;
48534;SDS011;34323;52.022;5.686;2023-03-14T13:26:02;3.67;;;1.00;;
48534;SDS011;34323;52.022;5.686;2023-03-14T13:28:30;5.38;;;1.00;;
48534;SDS011;34323;52.022;5.686;2023-03-14T13:31:03;4.18;;;0.80;;
48534;SDS011;34323;52.022;5.686;2023-03-14T13:33:30;5.07;;;0.75;;
48534;SDS011;34323;52.022;5.686;2023-03-14T13:35:56;6.15;;;1.20;;
48534;SDS011;34323;52.022;5.686;2023-03-14T13:38:27;5.03;;;1.00;;
48534;SDS011;34323;52.022;5.686;2023-03-14T13:40:55;7.82;;;1.40;;
48534;SDS011;34323;52.022;5.686;2023-03-14T13:43:29;8.35;;;1.48;;
48534;SDS011;34323;52.022;5.686;2023-03-14T13:48:30;9.13;;;1.27;;
48534;SDS011;34323;52.022;5.686;2023-03-14T13:50:59;9.13;;;1.45;;
48534;SDS011;34323;52.022;5.686;2023-03-14T13:53:45;6.70;;;1.30;;
48534;SDS011;34323;52.022;5.686;2023-03-14T13:56:14;5.10;;;1.33;;
48534;SDS011;34323;52.022;5.686;2023-03-14T13:58:40;7.78;;;1.52;;
48534;SDS011;34323;52.022;5.686;2023-03-14T14:01:12;9.35;;;1.30;;
48534;SDS011;34323;52.022;5.686;2023-03-14T14:03:50;4.97;;;1.23;;
48534;SDS011;34323;52.022;5.686;2023-03-14T14:08:55;10.73;;;1.33;;
48534;SDS011;34323;52.022;5.686;2023-03-14T14:11:27;7.40;;;1.23;;
48534;SDS011;34323;52.022;5.686;2023-03-14T14:14:29;5.95;;;1.58;;
48534;SDS011;34323;52.022;5.686;2023-03-14T14:17:05;3.60;;;0.95;;
48534;SDS011;34323;52.022;5.686;2023-03-14T14:19:34;3.55;;;0.75;;
48534;SDS011;34323;52.022;5.686;2023-03-14T14:22:01;4.55;;;0.95;;
48534;SDS011;34323;52.022;5.686;2023-03-14T14:24:28;7.55;;;1.25;;
48534;SDS011;34323;52.022;5.686;2023-03-14T14:26:59;8.57;;;1.55;;
48534;SDS011;34323;52.022;5.686;2023-03-14T14:29:28;7.07;;;1.58;;
48534;SDS011;34323;52.022;5.686;2023-03-14T14:34:28;9.07;;;1.55;;
48534;SDS011;34323;52.022;5.686;2023-03-14T14:36:53;8.65;;;1.23;;
48534;SDS011;34323;52.022;5.686;2023-03-14T14:39:26;7.85;;;0.95;;
48534;SDS011;34323;52.022;5.686;2023-03-14T14:41:53;10.20;;;1.30;;
48534;SDS011;34323;52.022;5.686;2023-03-14T14:44:52;4.30;;;1.20;;
48534;SDS011;34323;52.022;5.686;2023-03-14T14:47:14;6.88;;;1.48;;
48534;SDS011;34323;52.022;5.686;2023-03-14T14:49:43;5.30;;;1.67;;
48534;SDS011;34323;52.022;5.686;2023-03-14T14:54:38;6.15;;;1.08;;
48534;SDS011;34323;52.022;5.686;2023-03-14T14:57:22;8.45;;;1.00;;
48534;SDS011;34323;52.022;5.686;2023-03-14T14:59:50;5.32;;;1.10;;
48534;SDS011;34323;52.022;5.686;2023-03-14T15:05:05;7.28;;;1.30;;
48534;SDS011;34323;52.022;5.686;2023-03-14T15:07:36;9.15;;;1.27;;
48534;SDS011;34323;52.022;5.686;2023-03-14T15:10:02;6.07;;;1.38;;
48534;SDS011;34323;52.022;5.686;2023-03-14T15:12:28;10.57;;;1.20;;
48534;SDS011;34323;52.022;5.686;2023-03-14T15:14:53;7.80;;;1.45;;
48534;SDS011;34323;52.022;5.686;2023-03-14T15:17:22;9.65;;;1.20;;
48534;SDS011;34323;52.022;5.686;2023-03-14T15:19:47;7.82;;;1.50;;
48534;SDS011;34323;52.022;5.686;2023-03-14T15:22:13;9.77;;;1.83;;
48534;SDS011;34323;52.022;5.686;2023-03-14T15:24:39;7.88;;;1.10;;
48534;SDS011;34323;52.022;5.686;2023-03-14T15:27:09;7.43;;;1.13;;
48534;SDS011;34323;52.022;5.686;2023-03-14T15:29:39;5.05;;;1.17;;
48534;SDS011;34323;52.022;5.686;2023-03-14T15:32:04;8.50;;;1.20;;
48534;SDS011;34323;52.022;5.686;2023-03-14T15:34:30;6.97;;;1.15;;
48534;SDS011;34323;52.022;5.686;2023-03-14T15:36:55;9.70;;;2.08;;
48534;SDS011;34323;52.022;5.686;2023-03-14T15:39:21;8.23;;;1.58;;
48534;SDS011;34323;52.022;5.686;2023-03-14T15:41:46;8.32;;;1.25;;
48534;SDS011;34323;52.022;5.686;2023-03-14T15:44:12;6.55;;;1.42;;
48534;SDS011;34323;52.022;5.686;2023-03-14T15:46:38;6.45;;;1.40;;
48534;SDS011;34323;52.022;5.686;2023-03-14T15:49:04;6.97;;;1.13;;
48534;SDS011;34323;52.022;5.686;2023-03-14T15:51:29;5.15;;;1.48;;
48534;SDS011;34323;52.022;5.686;2023-03-14T15:53:55;6.80;;;1.35;;
48534;SDS011;34323;52.022;5.686;2023-03-14T15:56:21;4.18;;;1.02;;
48534;SDS011;34323;52.022;5.686;2023-03-14T15:58:49;4.65;;;0.95;;
48534;SDS011;34323;52.022;5.686;2023-03-14T16:01:16;10.07;;;1.92;;
48534;SDS011;34323;52.022;5.686;2023-03-14T16:03:42;8.82;;;1.10;;
48534;SDS011;34323;52.022;5.686;2023-03-14T16:06:09;6.68;;;1.17;;
48534;SDS011;34323;52.022;5.686;2023-03-14T16:08:35;6.63;;;0.88;;
48534;SDS011;34323;52.022;5.686;2023-03-14T16:11:01;8.25;;;1.33;;
48534;SDS011;34323;52.022;5.686;2023-03-14T16:13:27;2.85;;;1.35;;